Terminal Aerodrome Forecast
Issued by NWS

Home | Current Version | Previous Version | Graphics & Text | Print | Product List | Glossary On
Versions: 1 2 3 4 5 6 7 8 9 10 11 12 13 14 15 16 17 18 19 20 21 22 23 24 25 26 27 28 29
891
FTUS43 KLOT 281552 AAA
TAFORD
TAF AMD
KORD 281552Z 2816/2918 08007KT P6SM VCTS SCT045CB BKN080 BKN250
     FM281800 06008KT P6SM VCSH SCT030 BKN080
      TEMPO 2821/2823 2SM TSRA BKN040CB
     FM290100 03009KT P6SM SCT030 BKN080=

USA.gov is the U.S. government's official web portal to all federal, state and local government web resources and services.